createdAt,value
2017-11-24T00:00:39.544Z,64.09
2017-11-24T00:03:07.581Z,64.81
2017-11-24T00:05:37.373Z,64.71
2017-11-24T00:08:05.078Z,64.62
2017-11-24T00:10:34.663Z,64.47
2017-11-24T00:15:39.217Z,63.86
2017-11-24T00:18:08.467Z,63.17
2017-11-24T00:20:36.694Z,63.38
2017-11-24T00:23:05.682Z,63.11
2017-11-24T00:25:34.276Z,64.31
2017-11-24T00:28:02.654Z,64.45
2017-11-24T00:30:31.168Z,64.74
2017-11-24T00:32:58.955Z,65.13
2017-11-24T00:35:28.454Z,64.62
2017-11-24T00:37:58.219Z,64.40
2017-11-24T00:40:26.555Z,64.50
2017-11-24T00:42:55.256Z,64.31
2017-11-24T00:45:23.492Z,64.52
2017-11-24T00:47:51.388Z,65.12
2017-11-24T00:50:19.543Z,65.46
2017-11-24T00:52:47.625Z,65.56
2017-11-24T00:55:17.634Z,65.11
2017-11-24T00:57:51.140Z,64.99
2017-11-24T01:00:19.173Z,64.65
2017-11-24T01:02:57.205Z,66.04
2017-11-24T01:05:31.206Z,66.28
2017-11-24T01:07:59.997Z,65.41
2017-11-24T01:10:34.764Z,65.44
2017-11-24T01:13:02.500Z,65.46
2017-11-24T01:15:39.255Z,66.26
2017-11-24T01:18:09.993Z,66.80
2017-11-24T01:20:39.734Z,67.20
2017-11-24T01:23:13.597Z,67.32
2017-11-24T01:26:10.870Z,67.83
2017-11-24T01:28:39.205Z,67.37
2017-11-24T01:31:07.037Z,66.10
2017-11-24T01:33:34.972Z,66.08
2017-11-24T01:36:07.027Z,65.99
2017-11-24T01:38:37.138Z,65.88
2017-11-24T01:41:07.294Z,66.34
2017-11-24T01:43:36.580Z,66.61
2017-11-24T01:46:05.220Z,66.92
2017-11-24T01:48:39.490Z,66.30
2017-11-24T01:51:10.194Z,65.80
2017-11-24T01:53:38.926Z,65.25
2017-11-24T01:56:07.768Z,64.91
2017-11-24T01:58:37.387Z,66.57
2017-11-24T02:01:07.532Z,65.54
2017-11-24T02:03:37.039Z,65.47
2017-11-24T02:06:05.986Z,65.76
2017-11-24T02:08:34.819Z,66.18
2017-11-24T02:11:04.961Z,67.32
2017-11-24T02:13:41.607Z,66.90
2017-11-24T02:16:11.965Z,66.96
2017-11-24T02:21:16.389Z,66.61
2017-11-24T02:23:50.554Z,67.20
2017-11-24T02:26:22.682Z,66.90
2017-11-24T02:28:51.235Z,66.88
2017-11-24T02:31:22.084Z,66.82
2017-11-24T02:33:53.006Z,66.18
2017-11-24T02:36:21.281Z,66.84
2017-11-24T02:38:49.534Z,66.87
2017-11-24T02:41:18.243Z,67.50
2017-11-24T02:43:46.375Z,67.53
2017-11-24T02:46:15.616Z,67.04
2017-11-24T02:48:45.465Z,67.03
2017-11-24T02:51:13.469Z,66.88
2017-11-24T02:53:43.252Z,66.71
2017-11-24T02:58:46.453Z,66.73
2017-11-24T03:01:14.402Z,66.38
2017-11-24T03:03:46.865Z,67.46
2017-11-24T03:06:14.903Z,67.31
2017-11-24T03:08:50.704Z,67.00
2017-11-24T03:11:19.919Z,66.76
2017-11-24T03:13:52.101Z,66.54
2017-11-24T03:16:26.836Z,66.11
2017-11-24T03:19:03.765Z,65.52
2017-11-24T03:21:35.944Z,65.04
2017-11-24T03:24:06.526Z,64.80
2017-11-24T03:26:36.964Z,64.95
2017-11-24T03:29:08.328Z,64.99
2017-11-24T03:31:40.730Z,65.56
2017-11-24T03:34:16.109Z,65.52
2017-11-24T03:36:52.725Z,65.76
2017-11-24T03:39:33.527Z,66.25
2017-11-24T03:42:04.034Z,66.31
2017-11-24T03:44:36.499Z,66.33
2017-11-24T03:47:05.585Z,65.67
2017-11-24T03:49:33.689Z,65.19
2017-11-24T03:52:02.715Z,64.57
2017-11-24T03:54:33.051Z,64.29
2017-11-24T03:57:04.804Z,64.29
2017-11-24T03:59:32.375Z,63.94
2017-11-24T04:02:05.136Z,63.81
2017-11-24T04:04:33.547Z,63.81
2017-11-24T04:07:01.293Z,63.50
2017-11-24T04:09:29.996Z,63.43
2017-11-24T04:12:01.815Z,63.47
2017-11-24T04:14:30.725Z,63.38
2017-11-24T04:17:01.260Z,63.42
2017-11-24T04:19:39.716Z,63.47
2017-11-24T04:22:09.225Z,63.55
2017-11-24T04:24:41.550Z,63.68
2017-11-24T04:27:09.873Z,63.72
2017-11-24T04:29:37.992Z,64.27
2017-11-24T04:32:08.133Z,64.85
2017-11-24T04:34:37.687Z,64.80
2017-11-24T04:37:05.804Z,64.69
2017-11-24T04:39:38.260Z,64.42
2017-11-24T04:42:07.374Z,64.74
2017-11-24T04:44:35.223Z,65.21
2017-11-24T04:47:02.817Z,65.75
2017-11-24T04:49:30.830Z,65.53
2017-11-24T04:52:01.800Z,65.92
2017-11-24T04:54:29.838Z,66.35
2017-11-24T04:56:59.208Z,66.50
2017-11-24T04:59:27.263Z,66.49
2017-11-24T05:01:59.588Z,66.55
2017-11-24T05:04:36.955Z,66.12
2017-11-24T05:07:05.708Z,66.12
2017-11-24T05:09:34.542Z,66.82
2017-11-24T05:12:16.249Z,66.48
2017-11-24T05:14:48.105Z,67.05
2017-11-24T05:17:18.772Z,66.72
2017-11-24T05:19:47.887Z,65.98
2017-11-24T05:22:15.769Z,65.58
2017-11-24T05:24:47.604Z,65.64
2017-11-24T05:27:15.280Z,65.77
2017-11-24T05:29:42.961Z,65.65
2017-11-24T05:32:14.875Z,65.49
2017-11-24T05:34:43.512Z,66.31
2017-11-24T05:37:11.970Z,65.71
2017-11-24T05:39:41.168Z,65.95
2017-11-24T05:42:15.369Z,66.43
2017-11-24T05:44:43.463Z,66.13
2017-11-24T05:47:26.058Z,65.70
2017-11-24T05:49:56.976Z,65.53
2017-11-24T05:52:24.765Z,65.72
2017-11-24T05:54:52.390Z,65.54
2017-11-24T05:57:20.782Z,65.39
2017-11-24T05:59:48.402Z,65.11
2017-11-24T06:02:16.424Z,64.77
2017-11-24T06:04:45.389Z,64.59
2017-11-24T06:07:42.792Z,64.26
2017-11-24T06:10:14.484Z,64.23
2017-11-24T06:12:42.364Z,64.74
2017-11-24T06:15:10.191Z,64.90
2017-11-24T06:17:38.530Z,64.97
2017-11-24T06:20:07.351Z,64.98
2017-11-24T06:22:35.214Z,65.32
2017-11-24T06:25:02.964Z,65.08
2017-11-24T06:27:30.630Z,64.72
2017-11-24T06:29:58.390Z,64.66
2017-11-24T06:32:25.890Z,64.70
2017-11-24T06:34:53.342Z,64.81
2017-11-24T06:37:20.953Z,64.67
2017-11-24T06:39:48.755Z,64.74
2017-11-24T06:42:17.552Z,64.60
2017-11-24T06:44:49.329Z,64.60
2017-11-24T06:47:20.335Z,64.28
2017-11-24T06:49:53.418Z,64.12
2017-11-24T06:55:30.095Z,64.05
2017-11-24T06:58:05.894Z,64.05
2017-11-24T07:03:10.834Z,64.65
2017-11-24T07:05:38.447Z,65.08
2017-11-24T07:08:06.045Z,64.81
2017-11-24T07:10:39.973Z,64.23
2017-11-24T07:13:12.718Z,63.95
2017-11-24T07:15:44.397Z,64.09
2017-11-24T07:18:12.759Z,63.68
2017-11-24T07:24:16.290Z,63.56
2017-11-24T07:26:45.106Z,64.51
2017-11-24T07:29:16.512Z,65.04
2017-11-24T07:31:44.297Z,65.63
2017-11-24T07:34:16.416Z,64.80
2017-11-24T07:36:44.291Z,64.40
2017-11-24T07:39:12.052Z,62.07
2017-11-24T07:41:39.640Z,59.41
2017-11-24T07:44:07.780Z,54.79
2017-11-24T07:46:35.925Z,50.99
2017-11-24T07:49:03.918Z,49.95
2017-11-24T07:51:32.195Z,48.43
2017-11-24T07:53:59.811Z,48.02
2017-11-24T07:56:28.025Z,45.91
2017-11-24T07:58:55.816Z,46.47
2017-11-24T08:01:23.438Z,48.99
2017-11-24T08:03:51.245Z,53.00
2017-11-24T08:06:19.106Z,55.25
2017-11-24T08:08:46.628Z,55.05
2017-11-24T08:11:14.248Z,52.98
2017-11-24T08:13:41.774Z,50.67
2017-11-24T08:16:09.523Z,51.72
2017-11-24T08:18:37.008Z,53.55
2017-11-24T08:21:05.392Z,55.32
2017-11-24T08:23:33.024Z,56.52
2017-11-24T08:26:01.610Z,57.21
2017-11-24T08:28:29.189Z,57.40
2017-11-24T08:30:56.889Z,57.31
2017-11-24T08:33:24.420Z,58.97
2017-11-24T08:35:51.965Z,58.53
2017-11-24T08:38:19.499Z,57.49
2017-11-24T08:40:46.976Z,57.94
2017-11-24T08:43:14.533Z,57.71
2017-11-24T08:45:42.421Z,57.57
2017-11-24T08:48:15.623Z,57.32
2017-11-24T08:50:44.394Z,57.43
2017-11-24T08:53:11.923Z,56.85
2017-11-24T08:55:39.583Z,56.63
2017-11-24T08:58:07.226Z,56.84
2017-11-24T09:00:34.744Z,56.20
2017-11-24T09:03:02.250Z,56.29
2017-11-24T09:05:29.989Z,56.10
2017-11-24T09:07:57.563Z,56.10
2017-11-24T09:10:25.975Z,55.59
2017-11-24T09:12:53.580Z,55.39
2017-11-24T09:15:21.177Z,55.57
2017-11-24T09:17:48.873Z,55.39
2017-11-24T09:20:16.444Z,55.59
2017-11-24T09:22:43.944Z,55.32
2017-11-24T09:25:11.518Z,54.96
2017-11-24T09:27:39.059Z,54.96
2017-11-24T09:30:06.572Z,54.86
2017-11-24T09:32:34.128Z,54.37
2017-11-24T09:35:02.178Z,54.56
2017-11-24T09:37:29.861Z,54.52
2017-11-24T09:39:58.008Z,54.33
2017-11-24T09:42:25.635Z,54.47
2017-11-24T09:44:54.388Z,54.67
2017-11-24T09:47:22.069Z,54.47
2017-11-24T09:49:49.619Z,54.62
2017-11-24T09:52:17.189Z,54.03
2017-11-24T09:54:44.887Z,54.03
2017-11-24T09:57:12.415Z,53.19
2017-11-24T10:02:33.133Z,52.76
2017-11-24T10:05:00.669Z,52.51
2017-11-24T10:07:31.676Z,53.03
2017-11-24T10:12:46.680Z,52.08
2017-11-24T10:15:14.620Z,51.37
2017-11-24T10:17:43.152Z,52.00
2017-11-24T10:23:37.689Z,52.90
2017-11-24T10:26:05.504Z,52.27
2017-11-24T10:28:36.981Z,51.61
2017-11-24T10:33:53.737Z,52.09
2017-11-24T10:42:12.989Z,50.61
2017-11-24T10:44:46.985Z,51.30
2017-11-24T10:47:16.199Z,51.26
2017-11-24T10:49:53.160Z,50.86
2017-11-24T10:52:23.736Z,50.55
2017-11-24T10:54:54.943Z,50.21
2017-11-24T10:57:47.329Z,50.47
2017-11-24T11:00:14.942Z,49.18
2017-11-24T11:02:43.571Z,48.79
2017-11-24T11:05:16.018Z,47.38
2017-11-24T11:11:25.708Z,44.84
2017-11-24T11:14:26.410Z,44.75
2017-11-24T11:23:15.355Z,39.72
2017-11-24T11:25:45.365Z,37.83
2017-11-24T11:28:22.012Z,36.83
2017-11-24T11:31:02.204Z,38.08
2017-11-24T11:33:37.110Z,37.06
2017-11-24T11:36:09.207Z,36.91
2017-11-24T11:38:36.721Z,38.51
2017-11-24T11:41:12.731Z,38.27
2017-11-24T11:43:54.718Z,39.54
2017-11-24T11:46:34.126Z,39.45
2017-11-24T11:49:03.992Z,40.01
2017-11-24T11:51:45.605Z,40.75
2017-11-24T11:57:15.600Z,40.92
2017-11-24T11:59:58.831Z,42.86
2017-11-24T12:02:29.966Z,41.14
2017-11-24T12:05:06.544Z,41.59
2017-11-24T12:07:36.861Z,40.92
2017-11-24T12:16:03.480Z,41.31
2017-11-24T12:36:10.020Z,45.80
2017-11-24T12:38:37.931Z,46.08
2017-11-24T12:41:18.190Z,46.04
2017-11-24T12:43:45.747Z,46.77
2017-11-24T12:58:22.237Z,50.08
2017-11-24T13:00:55.266Z,50.51
2017-11-24T13:03:31.691Z,50.21
2017-11-24T13:06:00.142Z,50.44
2017-11-24T13:08:27.830Z,50.75
2017-11-24T13:10:55.818Z,51.02
2017-11-24T13:13:24.577Z,51.71
2017-11-24T13:15:52.554Z,51.63
2017-11-24T13:38:28.446Z,58.28
2017-11-24T13:41:04.380Z,59.36
2017-11-24T13:46:22.219Z,60.70
2017-11-24T13:48:50.595Z,60.21
2017-11-24T13:51:18.227Z,60.95
2017-11-24T13:53:45.851Z,61.40
2017-11-24T13:56:19.567Z,61.18
2017-11-24T14:01:30.312Z,62.27
2017-11-24T14:04:14.177Z,63.16
2017-11-24T14:06:43.138Z,63.79
2017-11-24T14:09:12.845Z,65.97
2017-11-24T14:11:40.385Z,66.68
2017-11-24T14:14:07.945Z,68.62
2017-11-24T14:19:21.157Z,68.14
2017-11-24T14:21:49.837Z,68.58
2017-11-24T14:24:17.448Z,68.57
2017-11-24T14:26:45.638Z,67.32
2017-11-24T14:35:59.758Z,67.76
2017-11-24T14:38:35.433Z,66.90
2017-11-24T14:41:03.142Z,67.02
2017-11-24T14:43:30.729Z,66.76
2017-11-24T14:45:58.322Z,66.68
2017-11-24T14:48:29.873Z,67.95
2017-11-24T14:50:57.439Z,68.60
2017-11-24T14:53:24.937Z,69.02
2017-11-24T14:55:52.453Z,68.79
2017-11-24T14:58:21.215Z,68.54
2017-11-24T15:00:48.706Z,68.44
2017-11-24T15:03:16.221Z,68.62
2017-11-24T15:05:43.840Z,68.95
2017-11-24T15:08:14.179Z,68.53
2017-11-24T15:10:42.238Z,68.62
2017-11-24T15:13:09.793Z,68.87
2017-11-24T15:15:37.331Z,69.69
2017-11-24T15:18:04.841Z,70.13
2017-11-24T15:20:32.381Z,70.66
2017-11-24T15:23:00.629Z,70.98
2017-11-24T15:25:28.149Z,69.86
2017-11-24T15:27:56.325Z,70.72
2017-11-24T15:30:24.291Z,70.72
2017-11-24T15:32:52.391Z,70.32
2017-11-24T15:35:20.082Z,70.31
2017-11-24T15:37:51.384Z,70.39
2017-11-24T15:40:21.401Z,70.61
2017-11-24T15:42:51.889Z,69.97
2017-11-24T15:45:20.814Z,70.03
2017-11-24T15:47:48.742Z,70.26
2017-11-24T15:50:17.071Z,70.16
2017-11-24T15:52:44.854Z,69.80
2017-11-24T15:55:13.185Z,69.56
2017-11-24T15:57:41.327Z,69.68
2017-11-24T16:00:09.306Z,69.56
2017-11-24T16:02:37.174Z,69.31
2017-11-24T16:05:04.826Z,69.39
2017-11-24T16:07:32.838Z,69.49
2017-11-24T16:10:00.756Z,69.62
2017-11-24T16:12:29.805Z,69.53
2017-11-24T16:14:59.084Z,69.37
2017-11-24T16:17:29.179Z,69.12
2017-11-24T16:19:57.567Z,68.79
2017-11-24T16:22:26.065Z,68.65
2017-11-24T16:24:54.139Z,68.13
2017-11-24T16:27:21.690Z,67.83
2017-11-24T16:29:49.686Z,67.91
2017-11-24T16:32:17.447Z,67.71
2017-11-24T16:34:45.282Z,67.52
2017-11-24T16:37:13.973Z,67.76
2017-11-24T16:39:47.012Z,68.67
2017-11-24T16:42:45.089Z,68.23
2017-11-24T16:45:16.912Z,68.06
2017-11-24T16:47:47.139Z,68.03
2017-11-24T16:50:18.645Z,68.11
2017-11-24T16:55:50.616Z,68.00
2017-11-24T16:59:49.876Z,68.22
2017-11-24T17:02:34.311Z,68.36
2017-11-24T17:05:02.205Z,68.46
2017-11-24T17:07:30.984Z,67.98
2017-11-24T17:09:58.649Z,68.11
2017-11-24T17:12:26.508Z,67.68
2017-11-24T17:14:54.488Z,67.28
2017-11-24T17:17:23.612Z,68.00
2017-11-24T17:19:54.418Z,67.89
2017-11-24T17:22:25.809Z,68.09
2017-11-24T17:24:55.874Z,67.73
2017-11-24T17:27:25.862Z,68.20
2017-11-24T17:29:53.822Z,67.35
2017-11-24T17:32:22.342Z,67.75
2017-11-24T17:34:51.041Z,67.17
2017-11-24T17:37:18.735Z,67.62
2017-11-24T17:39:47.580Z,67.51
2017-11-24T17:42:15.349Z,67.28
2017-11-24T17:44:43.059Z,67.39
2017-11-24T17:47:10.596Z,67.34
2017-11-24T17:49:38.342Z,67.85
2017-11-24T17:52:06.030Z,67.38
2017-11-24T17:54:34.315Z,67.22
2017-11-24T17:57:02.286Z,67.24
2017-11-24T17:59:30.510Z,67.13
2017-11-24T18:01:58.439Z,67.82
2017-11-24T18:04:28.122Z,67.80
2017-11-24T18:06:56.053Z,67.80
2017-11-24T18:09:24.911Z,68.33
2017-11-24T18:11:52.817Z,67.60
2017-11-24T18:14:21.006Z,67.66
2017-11-24T18:16:49.050Z,67.84
2017-11-24T18:19:20.466Z,68.16
2017-11-24T18:21:48.152Z,68.31
2017-11-24T18:24:19.417Z,68.33
2017-11-24T18:26:47.297Z,69.14
2017-11-24T18:29:16.308Z,69.20
2017-11-24T18:31:44.527Z,69.59
2017-11-24T18:34:14.241Z,69.53
2017-11-24T18:36:42.124Z,69.96
2017-11-24T18:39:09.895Z,69.71
2017-11-24T18:41:38.013Z,70.47
2017-11-24T18:44:05.806Z,70.26
2017-11-24T18:46:33.700Z,69.97
2017-11-24T18:49:01.330Z,70.18
2017-11-24T18:51:30.362Z,70.83
2017-11-24T18:53:58.899Z,70.61
2017-11-24T18:56:28.337Z,70.93
2017-11-24T18:59:03.646Z,70.53
2017-11-24T19:01:34.159Z,70.99
2017-11-24T19:04:05.375Z,71.00
2017-11-24T19:06:33.484Z,71.20
2017-11-24T19:09:01.403Z,71.05
2017-11-24T19:11:29.263Z,70.88
2017-11-24T19:13:56.899Z,70.67
2017-11-24T19:16:24.490Z,70.90
2017-11-24T19:18:52.314Z,70.96
2017-11-24T19:21:21.024Z,71.22
2017-11-24T19:23:48.945Z,71.66
2017-11-24T19:26:16.624Z,71.89
2017-11-24T19:28:44.424Z,72.25
2017-11-24T19:31:12.098Z,72.71
2017-11-24T19:33:39.755Z,73.24
2017-11-24T19:36:07.651Z,73.76
2017-11-24T19:38:35.488Z,73.71
2017-11-24T19:41:03.470Z,74.09
2017-11-24T19:43:31.122Z,74.53
2017-11-24T19:45:59.213Z,74.23
2017-11-24T19:48:28.519Z,74.66
2017-11-24T19:50:56.213Z,74.09
2017-11-24T19:53:24.953Z,74.20
2017-11-24T19:55:54.089Z,74.69
2017-11-24T19:58:25.859Z,76.03
2017-11-24T20:00:54.896Z,75.74
2017-11-24T20:03:22.693Z,76.55
2017-11-24T20:05:51.019Z,76.30
2017-11-24T20:08:20.456Z,76.14
2017-11-24T20:10:49.054Z,76.00
2017-11-24T20:13:17.330Z,76.66
2017-11-24T20:15:45.986Z,76.82
2017-11-24T20:18:14.164Z,76.17
2017-11-24T20:20:43.102Z,76.17
2017-11-24T20:23:11.219Z,75.99
2017-11-24T20:25:44.722Z,75.39
2017-11-24T20:28:13.873Z,75.50
2017-11-24T20:30:42.075Z,75.29
2017-11-24T20:33:11.666Z,75.75
2017-11-24T20:35:39.789Z,75.18
2017-11-24T20:41:02.663Z,75.50
2017-11-24T20:43:35.180Z,74.94
2017-11-24T20:46:06.240Z,75.29
2017-11-24T20:48:36.477Z,75.33
2017-11-24T20:51:07.887Z,75.03
2017-11-24T20:53:37.015Z,75.22
2017-11-24T20:56:05.996Z,75.16
2017-11-24T20:58:35.758Z,74.96
2017-11-24T21:01:07.397Z,75.12
2017-11-24T21:03:35.492Z,74.44
2017-11-24T21:06:04.240Z,74.34
2017-11-24T21:08:32.673Z,74.27
2017-11-24T21:11:00.523Z,74.10
2017-11-24T21:13:28.381Z,73.86
2017-11-24T21:15:56.258Z,74.53
2017-11-24T21:18:24.115Z,74.26
2017-11-24T21:20:51.894Z,74.30
2017-11-24T21:23:19.831Z,74.34
2017-11-24T21:25:47.817Z,74.40
2017-11-24T21:28:17.387Z,74.94
2017-11-24T21:30:45.523Z,75.16
2017-11-24T21:33:16.025Z,74.72
2017-11-24T21:35:44.077Z,75.03
2017-11-24T21:38:12.892Z,74.85
2017-11-24T21:40:41.749Z,75.24
2017-11-24T21:43:13.109Z,75.17
2017-11-24T21:45:45.528Z,75.17
2017-11-24T21:50:52.728Z,73.78
2017-11-24T21:53:30.856Z,73.20
2017-11-24T21:56:00.870Z,73.61
2017-11-24T21:58:28.599Z,73.92
2017-11-24T22:00:58.353Z,74.99
2017-11-24T22:03:26.810Z,74.75
2017-11-24T22:05:58.129Z,74.99
2017-11-24T22:08:26.134Z,75.54
2017-11-24T22:10:53.976Z,75.21
2017-11-24T22:13:22.308Z,74.43
2017-11-24T22:15:50.555Z,75.66
2017-11-24T22:18:25.453Z,75.33
2017-11-24T22:20:55.467Z,74.94
2017-11-24T22:23:26.304Z,74.52
2017-11-24T22:25:54.999Z,74.65
2017-11-24T22:28:26.619Z,74.87
2017-11-24T22:30:55.680Z,75.59
2017-11-24T22:33:24.574Z,74.77
2017-11-24T22:35:53.631Z,75.28
2017-11-24T22:38:21.847Z,75.07
2017-11-24T22:40:52.309Z,73.90
2017-11-24T22:43:21.731Z,73.79
2017-11-24T22:45:50.915Z,73.36
2017-11-24T22:50:55.650Z,72.93
2017-11-24T22:53:24.401Z,72.53
2017-11-24T22:55:54.612Z,72.11
2017-11-24T22:58:24.064Z,72.61
2017-11-24T23:00:54.202Z,72.48
2017-11-24T23:03:24.481Z,72.57
2017-11-24T23:05:52.956Z,72.32
2017-11-24T23:08:21.372Z,72.82
2017-11-24T23:10:52.980Z,72.09
2017-11-24T23:13:21.193Z,72.22
2017-11-24T23:18:24.840Z,71.71
2017-11-24T23:20:54.402Z,71.88
2017-11-24T23:23:24.074Z,72.21
2017-11-24T23:25:54.311Z,71.73
2017-11-24T23:28:22.988Z,72.39
2017-11-24T23:30:50.843Z,71.33
2017-11-24T23:33:20.266Z,71.28
2017-11-24T23:35:51.762Z,71.90
2017-11-24T23:38:20.277Z,71.25
2017-11-24T23:40:50.176Z,72.11
2017-11-24T23:43:21.607Z,71.44
2017-11-24T23:45:49.931Z,71.93
2017-11-24T23:48:17.773Z,72.02
2017-11-24T23:50:45.786Z,71.31
2017-11-24T23:53:17.282Z,71.75
2017-11-24T23:55:46.761Z,72.06
2017-11-24T23:58:15.401Z,71.08
